Time;durP1;ratioP1;P1;durP2;ratioP2;P2;SDS_P1;SDS_P2;PMS_P1;PMS_P2;Temp;Humidity;BMP_temperature;BMP_pressure;BME280_temperature;BME280_humidity;BME280_pressure;Samples;Min_cycle;Max_cycle;Signal;HPM_P1;HPM_P2
2021/11/07 00:00:13;;;;;;;0.47;0.47;;;;;;;;;;5096154;28;20051;-81
2021/11/07 00:02:48;;;;;;;0.10;0.10;;;;;;;;;;5096737;28;20111;-81
2021/11/07 00:05:25;;;;;;;1.23;1.13;;;;;;;;;;5096329;28;20066;-81
2021/11/07 00:10:49;;;;;;;0.30;0.30;;;;;;;;;;5096613;28;20042;-81
2021/11/07 00:15:41;;;;;;;0.00;0.00;;;;;;;;;;5096648;28;20077;-81
2021/11/07 00:18:09;;;;;;;0.08;0.08;;;;;;;;;;5095146;28;20048;-81
2021/11/07 00:20:36;;;;;;;0.20;0.20;;;;;;;;;;5096247;28;20093;-81
2021/11/07 00:26:32;;;;;;;0.10;0.10;;;;;;;;;;5091203;28;20078;-80
2021/11/07 00:38:55;;;;;;;1.00;1.00;;;;;;;;;;5096209;28;20461;-80
2021/11/07 00:44:07;;;;;;;2.00;1.13;;;;;;;;;;5096055;28;20114;-80
2021/11/07 00:56:48;;;;;;;0.40;0.40;;;;;;;;;;5096215;28;20511;-81
2021/11/07 01:01:48;;;;;;;0.75;0.73;;;;;;;;;;5095883;28;20040;-80
2021/11/07 01:04:14;;;;;;;0.10;0.10;;;;;;;;;;5095566;28;20074;-80
2021/11/07 01:06:41;;;;;;;0.00;0.00;;;;;;;;;;5095755;28;20076;-80
2021/11/07 01:09:07;;;;;;;9.18;2.00;;;;;;;;;;5095669;28;20024;-81
2021/11/07 01:11:32;;;;;;;0.00;0.00;;;;;;;;;;5095601;28;20012;-81
2021/11/07 01:13:58;;;;;;;0.52;0.52;;;;;;;;;;5094332;28;20472;-80
2021/11/07 01:16:23;;;;;;;0.00;0.00;;;;;;;;;;5095563;28;20032;-80
2021/11/07 01:18:49;;;;;;;1.95;0.90;;;;;;;;;;5093866;28;20028;-80
2021/11/07 01:21:15;;;;;;;0.17;0.17;;;;;;;;;;5095133;28;20039;-80
2021/11/07 01:23:55;;;;;;;0.55;0.55;;;;;;;;;;5095579;28;20044;-81
2021/11/07 01:26:43;;;;;;;0.00;0.00;;;;;;;;;;5094164;28;20016;-81
2021/11/07 01:31:33;;;;;;;0.10;0.10;;;;;;;;;;5095464;28;20031;-81
2021/11/07 01:33:59;;;;;;;0.28;0.28;;;;;;;;;;5095155;28;20028;-81
2021/11/07 01:37:13;;;;;;;4.43;0.90;;;;;;;;;;5095048;28;20070;-81
2021/11/07 01:39:20;;;;;;;0.10;0.10;;;;;;;;;;5089184;28;20038;-81
2021/11/07 01:42:11;;;;;;;0.20;0.20;;;;;;;;;;5095103;28;20063;-81
2021/11/07 01:44:38;;;;;;;0.10;0.10;;;;;;;;;;5094197;28;20044;-81
2021/11/07 01:47:04;;;;;;;2.08;0.68;;;;;;;;;;5094479;28;20032;-81
2021/11/07 01:49:34;;;;;;;4.38;1.65;;;;;;;;;;5094230;28;20038;-80
2021/11/07 01:52:03;;;;;;;0.20;0.20;;;;;;;;;;5094662;28;20445;-80
2021/11/07 01:54:36;;;;;;;0.28;0.28;;;;;;;;;;5094335;28;20028;-80
2021/11/07 01:57:02;;;;;;;1.55;1.35;;;;;;;;;;5094715;28;20089;-80
2021/11/07 01:59:27;;;;;;;0.17;0.17;;;;;;;;;;5094665;28;20032;-80
2021/11/07 02:01:54;;;;;;;0.17;0.17;;;;;;;;;;5094301;28;20020;-81
2021/11/07 02:04:19;;;;;;;2.35;1.55;;;;;;;;;;5094484;28;20041;-81
2021/11/07 02:06:44;;;;;;;2.20;0.63;;;;;;;;;;5094653;28;20429;-81
2021/11/07 02:09:10;;;;;;;0.30;0.30;;;;;;;;;;5094472;28;20016;-81
2021/11/07 02:11:35;;;;;;;2.65;2.03;;;;;;;;;;5110313;28;20023;-80
2021/11/07 02:14:01;;;;;;;0.00;0.00;;;;;;;;;;5094085;28;20507;-81
2021/11/07 02:16:26;;;;;;;0.10;0.10;;;;;;;;;;5092602;28;20058;-81
2021/11/07 02:18:52;;;;;;;0.68;0.68;;;;;;;;;;5094221;28;20081;-80
2021/11/07 02:21:18;;;;;;;2.42;1.90;;;;;;;;;;5093964;28;20114;-80
2021/11/07 02:23:43;;;;;;;0.10;0.10;;;;;;;;;;5093900;28;20093;-80
2021/11/07 02:26:09;;;;;;;2.80;0.85;;;;;;;;;;5094205;28;20405;-80
2021/11/07 02:28:39;;;;;;;0.00;0.00;;;;;;;;;;5094179;28;20028;-80
2021/11/07 02:31:05;;;;;;;0.00;0.00;;;;;;;;;;5092792;28;20534;-80
2021/11/07 02:33:31;;;;;;;0.15;0.15;;;;;;;;;;5081866;28;20450;-81
2021/11/07 02:36:02;;;;;;;5.47;1.65;;;;;;;;;;5073546;28;20123;-80
2021/11/07 02:38:27;;;;;;;1.05;1.05;;;;;;;;;;5073751;28;20013;-80
2021/11/07 02:40:52;;;;;;;1.90;1.63;;;;;;;;;;5073754;28;20023;-80
2021/11/07 02:43:18;;;;;;;1.25;1.20;;;;;;;;;;5073298;28;20530;-81
2021/11/07 02:45:43;;;;;;;0.75;0.70;;;;;;;;;;5073569;28;20032;-81
2021/11/07 02:48:08;;;;;;;0.75;0.75;;;;;;;;;;5073609;28;20043;-81
2021/11/07 02:50:34;;;;;;;0.57;0.57;;;;;;;;;;5072432;28;20381;-81
2021/11/07 02:52:59;;;;;;;1.73;1.63;;;;;;;;;;5073714;28;20342;-81
2021/11/07 02:55:25;;;;;;;0.10;0.10;;;;;;;;;;5073272;28;20145;-80
2021/11/07 02:57:58;;;;;;;0.10;0.10;;;;;;;;;;5073484;28;20092;-80
2021/11/07 03:00:24;;;;;;;0.10;0.10;;;;;;;;;;5073259;28;20012;-80
2021/11/07 03:02:49;;;;;;;0.10;0.10;;;;;;;;;;5073044;28;20065;-80
2021/11/07 03:05:15;;;;;;;0.10;0.10;;;;;;;;;;5072501;28;20036;-81
2021/11/07 03:07:41;;;;;;;0.10;0.10;;;;;;;;;;5072043;28;20111;-81
2021/11/07 03:10:07;;;;;;;0.35;0.35;;;;;;;;;;5073138;28;20107;-80
2021/11/07 03:12:33;;;;;;;0.30;0.30;;;;;;;;;;5073125;28;20487;-81
2021/11/07 03:14:58;;;;;;;0.20;0.20;;;;;;;;;;5072026;28;20017;-80
2021/11/07 03:17:25;;;;;;;0.10;0.10;;;;;;;;;;5073145;28;20372;-80
2021/11/07 03:19:50;;;;;;;0.45;0.45;;;;;;;;;;5073234;28;20039;-80
2021/11/07 03:22:17;;;;;;;0.55;0.55;;;;;;;;;;5073490;28;20111;-80
2021/11/07 03:24:43;;;;;;;6.10;3.00;;;;;;;;;;5071868;28;20032;-80
2021/11/07 03:27:16;;;;;;;0.35;0.35;;;;;;;;;;5073188;28;20028;-81
2021/11/07 03:29:44;;;;;;;0.77;0.77;;;;;;;;;;5073155;28;20059;-80
2021/11/07 03:32:32;;;;;;;4.63;1.85;;;;;;;;;;5073133;28;20030;-80
2021/11/07 03:35:01;;;;;;;3.03;1.08;;;;;;;;;;5073040;28;20036;-80
2021/11/07 03:37:29;;;;;;;2.30;2.15;;;;;;;;;;5072747;28;20489;-80
2021/11/07 03:39:56;;;;;;;1.30;1.27;;;;;;;;;;5073044;28;20033;-80
2021/11/07 03:42:22;;;;;;;1.48;0.95;;;;;;;;;;5073007;28;20029;-80
2021/11/07 03:44:48;;;;;;;0.60;0.60;;;;;;;;;;5088609;28;20090;-80
2021/11/07 03:47:13;;;;;;;0.10;0.10;;;;;;;;;;5072923;28;20067;-80
2021/11/07 03:49:39;;;;;;;6.72;2.80;;;;;;;;;;5071848;28;20534;-81
2021/11/07 03:52:05;;;;;;;0.43;0.43;;;;;;;;;;5073012;28;20107;-80
2021/11/07 03:54:31;;;;;;;2.10;0.95;;;;;;;;;;5072925;28;20452;-80
2021/11/07 03:56:58;;;;;;;0.73;0.70;;;;;;;;;;5072917;28;20061;-80
2021/11/07 03:59:24;;;;;;;27.48;1.88;;;;;;;;;;5088655;28;20020;-80
2021/11/07 04:01:50;;;;;;;2.40;1.98;;;;;;;;;;5072948;28;20575;-80
2021/11/07 04:04:15;;;;;;;0.20;0.20;;;;;;;;;;5072789;28;20077;-80
2021/11/07 04:06:41;;;;;;;0.10;0.10;;;;;;;;;;5072983;28;20099;-80
2021/11/07 04:09:09;;;;;;;0.10;0.10;;;;;;;;;;5072378;28;20114;-80
2021/11/07 04:11:35;;;;;;;0.85;0.85;;;;;;;;;;5071556;28;20012;-80
2021/11/07 04:14:01;;;;;;;2.50;1.98;;;;;;;;;;5072752;28;20024;-80
2021/11/07 04:16:26;;;;;;;0.10;0.10;;;;;;;;;;5074264;28;20028;-80
2021/11/07 04:18:51;;;;;;;0.10;0.10;;;;;;;;;;5076307;28;20024;-80
2021/11/07 04:21:17;;;;;;;0.20;0.20;;;;;;;;;;5090663;28;20054;-80
2021/11/07 04:23:42;;;;;;;0.03;0.03;;;;;;;;;;5096514;28;20115;-80
2021/11/07 04:26:08;;;;;;;0.10;0.10;;;;;;;;;;5096447;28;20017;-80
2021/11/07 04:28:34;;;;;;;1.30;1.20;;;;;;;;;;5096514;28;20087;-80
2021/11/07 04:30:59;;;;;;;1.30;1.25;;;;;;;;;;5096490;28;20091;-80
2021/11/07 04:33:25;;;;;;;0.10;0.10;;;;;;;;;;5096203;28;20015;-80
2021/11/07 04:35:50;;;;;;;0.30;0.30;;;;;;;;;;5096008;28;20044;-80
2021/11/07 04:38:16;;;;;;;3.88;1.55;;;;;;;;;;5095877;28;20042;-80
2021/11/07 04:40:41;;;;;;;0.10;0.10;;;;;;;;;;5096358;28;20069;-80
2021/11/07 04:43:06;;;;;;;0.20;0.20;;;;;;;;;;5095937;28;20085;-80
2021/11/07 04:45:31;;;;;;;1.27;1.20;;;;;;;;;;5096137;28;20043;-80
2021/11/07 04:47:57;;;;;;;0.55;0.55;;;;;;;;;;5096069;28;20012;-81
2021/11/07 04:50:22;;;;;;;0.10;0.10;;;;;;;;;;5096146;28;20020;-80
2021/11/07 04:52:47;;;;;;;0.35;0.35;;;;;;;;;;5096421;28;20032;-80
2021/11/07 04:55:13;;;;;;;0.47;0.45;;;;;;;;;;5095923;28;20008;-80
2021/11/07 04:57:42;;;;;;;0.65;0.65;;;;;;;;;;5096035;28;20371;-80
2021/11/07 05:00:11;;;;;;;0.45;0.45;;;;;;;;;;5095801;28;20051;-80
2021/11/07 05:02:38;;;;;;;0.10;0.10;;;;;;;;;;5095733;28;20024;-80
2021/11/07 05:05:05;;;;;;;0.98;0.98;;;;;;;;;;5095755;28;20070;-80
2021/11/07 05:07:30;;;;;;;0.10;0.10;;;;;;;;;;5094658;28;20395;-80
2021/11/07 05:09:56;;;;;;;1.55;1.45;;;;;;;;;;5095709;28;20020;-80
2021/11/07 05:12:21;;;;;;;0.10;0.10;;;;;;;;;;5095665;28;20630;-80
2021/11/07 05:14:46;;;;;;;0.20;0.20;;;;;;;;;;5095344;28;20593;-80
2021/11/07 05:17:11;;;;;;;0.10;0.10;;;;;;;;;;5095455;28;20073;-80
2021/11/07 05:19:37;;;;;;;0.20;0.20;;;;;;;;;;5095594;28;20019;-80
2021/11/07 05:22:03;;;;;;;0.10;0.10;;;;;;;;;;5095432;28;20028;-80
2021/11/07 05:24:28;;;;;;;0.55;0.55;;;;;;;;;;5094050;28;20043;-80
2021/11/07 05:26:53;;;;;;;0.10;0.10;;;;;;;;;;5095296;28;20012;-80
2021/11/07 05:29:19;;;;;;;0.57;0.57;;;;;;;;;;5094495;28;20110;-80
2021/11/07 05:31:44;;;;;;;0.10;0.10;;;;;;;;;;5095169;28;20470;-80
2021/11/07 05:34:09;;;;;;;0.80;0.80;;;;;;;;;;5093920;28;20020;-80
2021/11/07 05:36:37;;;;;;;0.52;0.52;;;;;;;;;;5095170;28;20492;-80
2021/11/07 05:39:02;;;;;;;0.10;0.10;;;;;;;;;;5095095;28;20035;-80
2021/11/07 05:41:28;;;;;;;0.10;0.10;;;;;;;;;;5095058;28;20107;-80
2021/11/07 05:43:53;;;;;;;4.85;1.73;;;;;;;;;;5094933;28;20032;-81
2021/11/07 05:46:18;;;;;;;0.80;0.80;;;;;;;;;;5094695;28;20062;-80
2021/11/07 05:48:44;;;;;;;1.80;1.65;;;;;;;;;;5093556;28;20527;-80
2021/11/07 05:51:11;;;;;;;3.92;3.17;;;;;;;;;;5093777;28;20046;-80
2021/11/07 05:53:36;;;;;;;1.08;1.08;;;;;;;;;;5093236;28;20023;-80
2021/11/07 05:56:02;;;;;;;4.30;2.03;;;;;;;;;;5094759;28;20016;-80
2021/11/07 05:58:27;;;;;;;0.77;0.77;;;;;;;;;;5094760;28;20074;-80
2021/11/07 06:00:53;;;;;;;0.50;0.50;;;;;;;;;;5094338;28;20016;-80
2021/11/07 06:03:19;;;;;;;0.20;0.20;;;;;;;;;;5095112;28;20020;-80
2021/11/07 06:05:44;;;;;;;0.25;0.25;;;;;;;;;;5094487;28;20040;-80
2021/11/07 06:08:09;;;;;;;0.10;0.10;;;;;;;;;;5092989;28;20031;-80
2021/11/07 06:10:35;;;;;;;2.10;2.00;;;;;;;;;;5094560;28;20015;-80
2021/11/07 06:13:00;;;;;;;0.10;0.10;;;;;;;;;;5094118;28;20028;-80
2021/11/07 06:15:25;;;;;;;0.15;0.15;;;;;;;;;;5094429;28;20103;-80
2021/11/07 06:17:51;;;;;;;0.20;0.20;;;;;;;;;;5092750;28;20020;-80
2021/11/07 06:20:16;;;;;;;0.30;0.30;;;;;;;;;;5093235;28;20035;-80
2021/11/07 06:22:41;;;;;;;0.10;0.10;;;;;;;;;;5092905;28;20051;-80
2021/11/07 06:25:07;;;;;;;0.22;0.22;;;;;;;;;;5094233;28;20036;-80
2021/11/07 06:27:34;;;;;;;2.83;1.90;;;;;;;;;;5094150;28;20028;-80
2021/11/07 06:30:00;;;;;;;1.08;0.98;;;;;;;;;;5094297;28;20088;-80
2021/11/07 06:32:25;;;;;;;0.10;0.10;;;;;;;;;;5094035;28;20028;-80
2021/11/07 06:34:50;;;;;;;0.40;0.40;;;;;;;;;;5092865;28;20029;-80
2021/11/07 06:37:16;;;;;;;2.30;2.15;;;;;;;;;;5092546;28;20047;-80
2021/11/07 06:39:41;;;;;;;1.08;1.08;;;;;;;;;;5093914;28;20109;-80
2021/11/07 06:42:07;;;;;;;2.63;1.65;;;;;;;;;;5094074;28;20028;-80
2021/11/07 06:44:34;;;;;;;6.60;3.97;;;;;;;;;;5093541;28;20028;-80
2021/11/07 06:46:59;;;;;;;0.68;0.43;;;;;;;;;;5092623;28;20031;-80
2021/11/07 06:49:25;;;;;;;0.95;0.95;;;;;;;;;;5093900;28;20044;-80
2021/11/07 06:51:51;;;;;;;0.68;0.68;;;;;;;;;;5093772;28;20023;-80
2021/11/07 06:54:16;;;;;;;1.33;1.30;;;;;;;;;;5093868;28;20418;-80
2021/11/07 06:56:41;;;;;;;0.30;0.30;;;;;;;;;;5093666;28;20384;-80
2021/11/07 06:59:07;;;;;;;0.20;0.20;;;;;;;;;;5093716;28;20080;-80
2021/11/07 07:01:33;;;;;;;0.10;0.10;;;;;;;;;;5092093;28;20028;-80
2021/11/07 07:03:58;;;;;;;0.10;0.10;;;;;;;;;;5092265;28;20461;-80
2021/11/07 07:06:24;;;;;;;0.10;0.10;;;;;;;;;;5093381;28;20039;-80
2021/11/07 07:08:56;;;;;;;0.20;0.20;;;;;;;;;;5093684;28;20019;-80
2021/11/07 07:11:45;;;;;;;0.45;0.45;;;;;;;;;;5093833;28;20032;-81
2021/11/07 07:14:15;;;;;;;1.48;1.38;;;;;;;;;;5093206;28;20532;-80
2021/11/07 07:19:34;;;;;;;0.63;0.63;;;;;;;;;;5093523;28;20024;-80
2021/11/07 07:35:06;;;;;;;0.10;0.10;;;;;;;;;;5093066;28;20102;-80
2021/11/07 07:37:31;;;;;;;0.10;0.10;;;;;;;;;;5093213;28;20075;-79
2021/11/07 07:39:57;;;;;;;1.05;1.05;;;;;;;;;;5092965;28;20044;-79
2021/11/07 07:42:22;;;;;;;3.70;2.15;;;;;;;;;;5093240;28;20428;-79
2021/11/07 07:44:51;;;;;;;0.15;0.15;;;;;;;;;;5091794;28;20082;-79
2021/11/07 07:47:17;;;;;;;0.10;0.10;;;;;;;;;;5093191;28;20057;-78
2021/11/07 07:49:42;;;;;;;0.10;0.10;;;;;;;;;;5093202;28;20028;-79
2021/11/07 07:52:07;;;;;;;0.43;0.43;;;;;;;;;;5095914;28;20032;-78
2021/11/07 07:54:33;;;;;;;0.10;0.10;;;;;;;;;;5097470;28;20020;-78
2021/11/07 07:56:58;;;;;;;0.10;0.10;;;;;;;;;;5097034;28;20028;-79
2021/11/07 07:59:24;;;;;;;1.38;0.80;;;;;;;;;;5096576;28;20131;-79
2021/11/07 08:01:51;;;;;;;2.53;1.23;;;;;;;;;;5084056;28;20024;-80
2021/11/07 08:04:17;;;;;;;0.73;0.63;;;;;;;;;;5092882;28;20108;-79
2021/11/07 08:06:42;;;;;;;0.20;0.20;;;;;;;;;;5075175;28;20033;-80
2021/11/07 08:09:08;;;;;;;1.27;1.15;;;;;;;;;;5075447;28;20457;-79
2021/11/07 08:11:33;;;;;;;5.18;1.95;;;;;;;;;;5075656;28;20017;-79
2021/11/07 08:13:58;;;;;;;1.25;1.17;;;;;;;;;;5075422;28;20031;-79
2021/11/07 08:16:26;;;;;;;0.17;0.17;;;;;;;;;;5074594;28;20016;-80
2021/11/07 08:18:53;;;;;;;0.20;0.20;;;;;;;;;;5076871;28;20059;-80
2021/11/07 08:21:18;;;;;;;0.10;0.10;;;;;;;;;;5095667;28;20057;-79
2021/11/07 08:23:44;;;;;;;0.47;0.47;;;;;;;;;;5095403;28;20090;-79
2021/11/07 08:26:09;;;;;;;1.30;1.20;;;;;;;;;;5096515;28;20456;-79
2021/11/07 08:28:35;;;;;;;5.57;1.45;;;;;;;;;;5095151;28;20200;-79
2021/11/07 08:31:07;;;;;;;0.28;0.28;;;;;;;;;;5092189;28;20024;-79
2021/11/07 08:33:33;;;;;;;0.10;0.10;;;;;;;;;;5092677;28;20038;-80
2021/11/07 08:36:04;;;;;;;1.05;0.93;;;;;;;;;;5094101;28;20040;-79
2021/11/07 08:38:36;;;;;;;3.83;2.47;;;;;;;;;;5096012;28;20019;-79
2021/11/07 08:41:02;;;;;;;5.38;2.35;;;;;;;;;;5080886;28;20052;-79
2021/11/07 09:05:05;;;;;;;2.33;1.92;;;;;;;;;;5093673;28;20036;-81
2021/11/07 09:10:03;;;;;;;0.17;0.17;;;;;;;;;;5086383;28;20036;-80
2021/11/07 09:12:29;;;;;;;0.10;0.10;;;;;;;;;;5074903;28;20040;-80
2021/11/07 09:14:54;;;;;;;0.45;0.45;;;;;;;;;;5074396;28;20068;-80
2021/11/07 09:17:20;;;;;;;0.80;0.63;;;;;;;;;;5074816;28;20029;-79
2021/11/07 09:19:48;;;;;;;0.10;0.10;;;;;;;;;;5075093;28;20021;-80
2021/11/07 09:22:18;;;;;;;0.20;0.20;;;;;;;;;;5075182;28;20032;-80
2021/11/07 09:24:48;;;;;;;1.25;1.15;;;;;;;;;;5074978;28;20032;-80
2021/11/07 09:29:50;;;;;;;0.10;0.10;;;;;;;;;;5075060;28;20036;-81
2021/11/07 09:32:40;;;;;;;9.95;1.75;;;;;;;;;;5075557;28;20020;-80
2021/11/07 09:37:43;;;;;;;0.20;0.20;;;;;;;;;;5095137;28;20446;-80
2021/11/07 09:40:11;;;;;;;0.10;0.10;;;;;;;;;;5095096;28;20039;-81
2021/11/07 09:47:56;;;;;;;0.00;0.00;;;;;;;;;;5094927;28;20020;-80
2021/11/07 09:50:21;;;;;;;0.30;0.30;;;;;;;;;;5094902;28;20028;-80
2021/11/07 09:52:50;;;;;;;0.63;0.63;;;;;;;;;;5094872;28;20123;-80
2021/11/07 09:55:17;;;;;;;0.28;0.28;;;;;;;;;;5094912;28;20023;-80
2021/11/07 09:57:43;;;;;;;14.80;1.95;;;;;;;;;;5094684;28;20092;-80
2021/11/07 10:00:11;;;;;;;0.10;0.10;;;;;;;;;;5094933;28;20070;-80
2021/11/07 10:02:37;;;;;;;2.60;0.47;;;;;;;;;;5094768;28;20020;-80
2021/11/07 10:05:03;;;;;;;0.63;0.43;;;;;;;;;;5094547;28;20050;-80
2021/11/07 10:07:32;;;;;;;0.75;0.75;;;;;;;;;;5094495;28;20012;-80
2021/11/07 10:10:00;;;;;;;0.15;0.15;;;;;;;;;;5094545;28;20016;-80
2021/11/07 10:12:34;;;;;;;0.00;0.00;;;;;;;;;;5094497;28;20027;-80
2021/11/07 10:15:03;;;;;;;1.35;1.25;;;;;;;;;;5094157;28;20020;-80
2021/11/07 10:18:36;;;;;;;1.00;0.75;;;;;;;;;;5094198;28;20468;-79
2021/11/07 10:23:31;;;;;;;0.20;0.20;;;;;;;;;;5070519;28;20040;-80
2021/11/07 10:26:20;;;;;;;1.38;1.20;;;;;;;;;;5094081;28;20039;-80
2021/11/07 10:28:54;;;;;;;10.40;1.35;;;;;;;;;;5094117;28;20032;-80
2021/11/07 10:31:29;;;;;;;2.50;0.75;;;;;;;;;;5094119;28;20042;-80
2021/11/07 10:52:27;;;;;;;0.93;0.80;;;;;;;;;;5090486;28;20023;-79
2021/11/07 10:54:52;;;;;;;0.10;0.10;;;;;;;;;;5093436;28;20036;-80
2021/11/07 10:57:26;;;;;;;0.00;0.00;;;;;;;;;;5084161;28;20492;-79
2021/11/07 11:00:10;;;;;;;5.57;0.82;;;;;;;;;;5090791;28;20037;-80
2021/11/07 11:02:35;;;;;;;0.13;0.13;;;;;;;;;;5090013;28;20046;-80
2021/11/07 11:05:02;;;;;;;0.75;0.47;;;;;;;;;;5093063;28;20472;-80
2021/11/07 11:07:28;;;;;;;0.98;0.90;;;;;;;;;;5093606;28;20032;-80
2021/11/07 11:10:12;;;;;;;0.70;0.70;;;;;;;;;;5093459;28;20066;-80
2021/11/07 11:12:58;;;;;;;0.32;0.32;;;;;;;;;;5082996;28;20487;-80
2021/11/07 11:15:32;;;;;;;0.55;0.55;;;;;;;;;;5072039;28;20120;-80
2021/11/07 11:18:06;;;;;;;10.23;0.90;;;;;;;;;;5070703;28;20033;-81
2021/11/07 11:20:42;;;;;;;0.00;0.00;;;;;;;;;;5071975;28;20427;-81
2021/11/07 11:23:18;;;;;;;;;;;;;;;;;;5072646;28;20426;-81
2021/11/07 11:25:50;;;;;;;1.35;1.00;;;;;;;;;;5072621;28;19916;-80
2021/11/07 11:28:31;;;;;;;6.68;1.35;;;;;;;;;;5076212;28;20910;-80
2021/11/07 11:31:50;;;;;;;0.43;0.25;;;;;;;;;;5077272;28;20084;-80
2021/11/07 11:33:47;;;;;;;0.73;0.45;;;;;;;;;;5091514;28;20040;-80
2021/11/07 11:38:53;;;;;;;0.25;0.25;;;;;;;;;;5097445;28;20365;-80
2021/11/07 11:41:25;;;;;;;0.30;0.30;;;;;;;;;;5097478;28;20028;-80
2021/11/07 11:43:52;;;;;;;0.90;0.90;;;;;;;;;;5097181;28;20032;-81
2021/11/07 11:46:26;;;;;;;9.77;1.65;;;;;;;;;;5097282;28;20012;-81
2021/11/07 11:57:38;;;;;;;0.43;0.43;;;;;;;;;;5097056;28;20047;-81
2021/11/07 12:02:57;;;;;;;0.10;0.10;;;;;;;;;;5095360;28;20047;-81
2021/11/07 12:05:42;;;;;;;0.65;0.65;;;;;;;;;;5096920;28;20044;-81
2021/11/07 12:10:41;;;;;;;0.05;0.05;;;;;;;;;;5096865;28;20040;-81
2021/11/07 12:13:25;;;;;;;0.70;0.70;;;;;;;;;;5096587;28;20473;-81
2021/11/07 12:15:53;;;;;;;0.20;0.20;;;;;;;;;;5096676;28;20028;-81
2021/11/07 12:18:18;;;;;;;0.30;0.30;;;;;;;;;;5096801;28;20054;-81
2021/11/07 12:20:52;;;;;;;0.40;0.40;;;;;;;;;;5096681;28;20359;-81
2021/11/07 12:23:22;;;;;;;5.25;1.70;;;;;;;;;;5096430;28;20031;-80
2021/11/07 12:25:49;;;;;;;5.82;1.65;;;;;;;;;;5096497;28;20067;-80
2021/11/07 12:28:15;;;;;;;0.10;0.10;;;;;;;;;;5094993;28;20016;-81
2021/11/07 12:30:41;;;;;;;0.35;0.35;;;;;;;;;;5096522;28;20028;-81
2021/11/07 12:33:10;;;;;;;0.35;0.35;;;;;;;;;;5096501;28;20032;-81
2021/11/07 12:35:47;;;;;;;0.75;0.20;;;;;;;;;;5096092;28;20059;-81
2021/11/07 12:41:00;;;;;;;0.43;0.38;;;;;;;;;;5095682;28;20047;-80
2021/11/07 12:43:32;;;;;;;0.52;0.52;;;;;;;;;;5096207;28;20109;-81
2021/11/07 12:46:10;;;;;;;0.00;0.00;;;;;;;;;;5096062;28;20052;-81
2021/11/07 12:48:38;;;;;;;1.98;1.05;;;;;;;;;;5096052;28;20024;-81
2021/11/07 12:51:08;;;;;;;10.55;1.25;;;;;;;;;;5096173;28;20078;-81
2021/11/07 12:53:52;;;;;;;0.10;0.10;;;;;;;;;;5095741;28;20469;-81
2021/11/07 12:56:28;;;;;;;0.10;0.10;;;;;;;;;;5096149;28;20016;-81
2021/11/07 12:58:53;;;;;;;2.47;1.08;;;;;;;;;;5095897;28;20039;-81
2021/11/07 13:01:18;;;;;;;0.00;0.00;;;;;;;;;;5095934;28;20020;-81
2021/11/07 13:03:47;;;;;;;2.50;1.10;;;;;;;;;;5095946;28;20028;-81
2021/11/07 13:06:13;;;;;;;0.52;0.30;;;;;;;;;;5096277;28;20586;-80
2021/11/07 13:08:43;;;;;;;2.83;1.65;;;;;;;;;;5095798;28;20048;-80
2021/11/07 13:11:19;;;;;;;0.15;0.15;;;;;;;;;;5095712;28;20039;-81
2021/11/07 13:13:52;;;;;;;0.10;0.10;;;;;;;;;;5095631;28;20024;-81
2021/11/07 13:21:36;;;;;;;0.20;0.20;;;;;;;;;;5095483;28;20028;-80
2021/11/07 13:29:32;;;;;;;1.85;0.73;;;;;;;;;;5094010;28;20035;-80
2021/11/07 13:34:29;;;;;;;1.45;1.08;;;;;;;;;;5095062;28;20020;-81
2021/11/07 13:36:56;;;;;;;1.95;1.13;;;;;;;;;;5093691;28;20056;-81
2021/11/07 13:39:33;;;;;;;0.10;0.10;;;;;;;;;;5085356;28;20468;-81
2021/11/07 13:42:06;;;;;;;0.00;0.00;;;;;;;;;;5092986;28;20024;-81
2021/11/07 13:44:41;;;;;;;4.57;1.98;;;;;;;;;;5094694;28;20078;-81
2021/11/07 13:47:06;;;;;;;0.00;0.00;;;;;;;;;;5095228;28;20053;-80
2021/11/07 13:49:32;;;;;;;1.02;0.73;;;;;;;;;;5094273;28;20433;-81
2021/11/07 13:52:01;;;;;;;0.45;0.45;;;;;;;;;;5094775;28;20020;-80
2021/11/07 13:54:27;;;;;;;0.00;0.00;;;;;;;;;;5094707;28;20031;-80
2021/11/07 13:56:53;;;;;;;1.98;1.35;;;;;;;;;;5094838;28;20392;-80
2021/11/07 13:59:31;;;;;;;0.08;0.08;;;;;;;;;;5094377;28;20020;-81
2021/11/07 14:01:57;;;;;;;0.00;0.00;;;;;;;;;;5093469;28;20048;-80
2021/11/07 14:04:22;;;;;;;0.00;0.00;;;;;;;;;;5094660;28;20400;-81
2021/11/07 14:06:48;;;;;;;0.60;0.60;;;;;;;;;;5093361;28;20107;-80
2021/11/07 14:09:14;;;;;;;0.95;0.90;;;;;;;;;;5094657;28;20030;-81
2021/11/07 14:11:39;;;;;;;0.85;0.65;;;;;;;;;;5094509;28;20028;-80
2021/11/07 14:14:09;;;;;;;0.10;0.10;;;;;;;;;;5093033;28;20357;-80
2021/11/07 14:16:43;;;;;;;0.10;0.10;;;;;;;;;;5094466;28;20505;-80
2021/11/07 14:19:11;;;;;;;1.75;1.65;;;;;;;;;;5094451;28;20090;-81
2021/11/07 14:21:38;;;;;;;0.30;0.30;;;;;;;;;;5094377;28;20111;-80
2021/11/07 14:47:53;;;;;;;0.10;0.10;;;;;;;;;;5093850;28;20032;-80
2021/11/07 14:53:25;;;;;;;0.38;0.38;;;;;;;;;;5093835;28;20043;-81
2021/11/07 14:56:19;;;;;;;0.00;0.00;;;;;;;;;;5093867;28;20153;-80
2021/11/07 14:59:16;;;;;;;0.00;0.00;;;;;;;;;;5093561;28;20030;-80
2021/11/07 15:01:55;;;;;;;0.10;0.10;;;;;;;;;;5093744;28;20059;-80
2021/11/07 15:04:36;;;;;;;16.70;0.55;;;;;;;;;;5093658;28;20072;-80
2021/11/07 15:07:09;;;;;;;0.00;0.00;;;;;;;;;;5093661;28;20495;-80
2021/11/07 15:15:03;;;;;;;0.00;0.00;;;;;;;;;;5093555;28;20040;-80
2021/11/07 15:17:36;;;;;;;2.88;1.60;;;;;;;;;;5093495;28;20070;-80
2021/11/07 15:20:14;;;;;;;0.20;0.20;;;;;;;;;;5093485;28;20054;-80
2021/11/07 15:22:42;;;;;;;0.10;0.10;;;;;;;;;;5093434;28;20032;-80
2021/11/07 15:25:07;;;;;;;0.80;0.80;;;;;;;;;;5093397;28;20048;-80
2021/11/07 15:27:33;;;;;;;1.35;1.00;;;;;;;;;;5093368;28;20032;-80
2021/11/07 15:29:59;;;;;;;20.83;1.27;;;;;;;;;;5093355;28;20020;-80
2021/11/07 15:32:37;;;;;;;0.15;0.15;;;;;;;;;;5093252;28;20020;-80
2021/11/07 15:35:14;;;;;;;0.25;0.25;;;;;;;;;;5093389;28;20122;-81
2021/11/07 15:37:39;;;;;;;0.08;0.08;;;;;;;;;;5093185;28;20048;-80
2021/11/07 15:40:06;;;;;;;0.10;0.10;;;;;;;;;;5093152;28;20173;-80
2021/11/07 15:42:32;;;;;;;0.10;0.10;;;;;;;;;;5092913;28;20024;-80
2021/11/07 15:45:03;;;;;;;2.20;1.40;;;;;;;;;;5092579;28;20044;-80
2021/11/07 15:48:18;;;;;;;0.10;0.10;;;;;;;;;;5093244;28;20028;-79
2021/11/07 15:55:58;;;;;;;0.80;0.80;;;;;;;;;;5083167;28;20055;-80
2021/11/07 16:09:27;;;;;;;1.38;1.27;;;;;;;;;;5092739;28;20152;-80
2021/11/07 16:16:48;;;;;;;0.20;0.20;;;;;;;;;;5096756;28;20111;-80
2021/11/07 16:19:21;;;;;;;0.10;0.10;;;;;;;;;;5096756;28;20107;-81
2021/11/07 16:21:50;;;;;;;0.52;0.43;;;;;;;;;;5096412;28;20496;-81
2021/11/07 16:24:17;;;;;;;0.00;0.00;;;;;;;;;;5096253;28;20396;-81
2021/11/07 16:26:43;;;;;;;0.10;0.10;;;;;;;;;;5096582;28;20035;-80
2021/11/07 16:29:08;;;;;;;0.00;0.00;;;;;;;;;;5096283;28;20024;-80
2021/11/07 16:31:39;;;;;;;0.10;0.10;;;;;;;;;;5096102;28;20118;-81
2021/11/07 16:34:09;;;;;;;0.10;0.10;;;;;;;;;;5096522;28;20028;-81
2021/11/07 16:36:39;;;;;;;0.10;0.10;;;;;;;;;;5096344;28;20192;-80
2021/11/07 16:39:12;;;;;;;0.10;0.10;;;;;;;;;;5096373;28;20036;-80
2021/11/07 16:44:04;;;;;;;0.32;0.32;;;;;;;;;;5092694;28;20059;-81
2021/11/07 16:46:32;;;;;;;0.20;0.20;;;;;;;;;;5095305;28;20468;-81
2021/11/07 16:49:00;;;;;;;0.13;0.13;;;;;;;;;;5095736;28;20024;-81
2021/11/07 16:52:10;;;;;;;2.30;1.17;;;;;;;;;;5095596;28;20071;-81
2021/11/07 16:54:22;;;;;;;0.17;0.17;;;;;;;;;;5092579;28;20036;-82
2021/11/07 16:56:47;;;;;;;0.10;0.10;;;;;;;;;;5095806;28;20059;-82
2021/11/07 17:01:46;;;;;;;0.30;0.30;;;;;;;;;;5095921;28;20449;-81
2021/11/07 17:04:16;;;;;;;0.10;0.10;;;;;;;;;;5095797;28;20024;-81
2021/11/07 17:06:47;;;;;;;0.10;0.10;;;;;;;;;;5096130;28;20026;-82
2021/11/07 17:11:42;;;;;;;0.25;0.25;;;;;;;;;;5095733;28;20048;-82
2021/11/07 17:14:11;;;;;;;1.60;1.45;;;;;;;;;;5094608;28;20364;-82
2021/11/07 17:16:47;;;;;;;0.10;0.10;;;;;;;;;;5095595;28;20032;-81
2021/11/07 17:19:18;;;;;;;0.10;0.10;;;;;;;;;;5095421;28;20379;-82
2021/11/07 17:27:05;;;;;;;0.08;0.08;;;;;;;;;;5078658;28;20067;-83
2021/11/07 17:29:37;;;;;;;0.98;0.88;;;;;;;;;;5085288;28;20024;-82
2021/11/07 17:32:08;;;;;;;0.55;0.55;;;;;;;;;;5094584;28;20036;-82
2021/11/07 17:34:42;;;;;;;0.10;0.10;;;;;;;;;;5094411;28;20110;-81
2021/11/07 17:37:13;;;;;;;0.28;0.28;;;;;;;;;;5093984;28;20051;-82
2021/11/07 17:40:02;;;;;;;0.65;0.57;;;;;;;;;;5083693;28;20028;-82
2021/11/07 17:56:04;;;;;;;1.95;1.85;;;;;;;;;;5088276;28;20392;-82
2021/11/07 17:58:29;;;;;;;3.78;2.20;;;;;;;;;;5076548;28;20491;-82
2021/11/07 18:00:55;;;;;;;0.30;0.30;;;;;;;;;;5075900;28;20024;-83
2021/11/07 18:03:20;;;;;;;0.10;0.10;;;;;;;;;;5090136;28;20020;-82
2021/11/07 18:05:48;;;;;;;0.75;0.70;;;;;;;;;;5076394;28;20055;-82
2021/11/07 18:08:20;;;;;;;3.72;1.70;;;;;;;;;;5084527;28;20375;-82
2021/11/07 18:10:50;;;;;;;0.40;0.40;;;;;;;;;;5093467;28;20026;-82
2021/11/07 18:13:17;;;;;;;0.60;0.60;;;;;;;;;;5093463;28;20637;-82
2021/11/07 18:15:43;;;;;;;0.28;0.28;;;;;;;;;;5093321;28;20020;-82
2021/11/07 18:18:10;;;;;;;0.20;0.20;;;;;;;;;;5093887;28;20016;-82
2021/11/07 18:20:35;;;;;;;0.93;0.93;;;;;;;;;;5086161;28;20098;-82
2021/11/07 18:23:06;;;;;;;1.98;1.17;;;;;;;;;;5093220;28;20016;-82
2021/11/07 18:25:44;;;;;;;1.58;0.63;;;;;;;;;;5092799;28;20036;-82
2021/11/07 18:28:10;;;;;;;1.13;0.98;;;;;;;;;;5093334;28;20028;-82
2021/11/07 18:30:36;;;;;;;0.13;0.13;;;;;;;;;;5093358;28;20023;-82
2021/11/07 18:33:02;;;;;;;0.10;0.10;;;;;;;;;;5093325;28;20490;-81